Milano / Bresso Airport LIMB

Flugplatz Daten

Name: Milano / Bresso Airport

Ident: LIMB

Lat: 45,54219818

Long: 9,20333004

Platzhöhe: 484 ft

IataCode:

City: Milano

Homepage: http://www.aeroclubmilano.it

Metar

2021/08/02 04:30
WAMM 020430Z VRB02KT 9000 -RA FEW019CB SCT020 29/25 Q1010 NOSIG RMK CB IN CLIMB

Taf

Gewünschte Webcam nicht vorhanden? Dann fügen Sie eine hinzu. Sie wird dann so schnell wie möglich freigeschaltet
Url: Title: